Time;durP1;ratioP1;P1;durP2;ratioP2;P2;SDS_P1;SDS_P2;PMS_P1;PMS_P2;Temp;Humidity;BMP_temperature;BMP_pressure;BME280_temperature;BME280_humidity;BME280_pressure;Samples;Min_cycle;Max_cycle;Signal;HPM_P1;HPM_P2
2023/05/22 00:02:07;;;;;;;7.23;3.10;;;;;;;18.27;51.67;96721.44;5007848;28;20561;-68
2023/05/22 00:04:34;;;;;;;5.77;2.80;;;;;;;18.27;51.17;96709.19;5010475;28;20227;-68
2023/05/22 00:07:02;;;;;;;5.47;3.00;;;;;;;18.39;51.13;96721.28;5009051;28;20192;-70
2023/05/22 00:09:29;;;;;;;7.43;3.63;;;;;;;18.26;51.21;96717.97;5010605;28;20736;-67
2023/05/22 00:11:56;;;;;;;4.33;3.30;;;;;;;18.19;51.61;96708.97;5009583;28;20280;-67
2023/05/22 00:14:23;;;;;;;6.40;3.17;;;;;;;18.29;51.68;96712.50;5008533;28;20768;-68
2023/05/22 00:16:50;;;;;;;7.53;3.57;;;;;;;18.12;52.35;96717.44;5010254;28;20208;-68
2023/05/22 00:19:17;;;;;;;7.03;3.00;;;;;;;18.09;52.65;96709.84;5007298;28;20262;-68
2023/05/22 00:21:45;;;;;;;8.07;3.30;;;;;;;18.09;52.63;96715.06;5010245;28;20255;-68
2023/05/22 00:24:12;;;;;;;5.10;2.97;;;;;;;18.07;52.33;96717.84;5008370;28;20779;-69
2023/05/22 00:26:39;;;;;;;6.37;3.20;;;;;;;18.10;52.63;96712.31;5009914;28;20208;-67
2023/05/22 00:29:06;;;;;;;7.93;3.27;;;;;;;18.02;52.81;96706.03;5008825;28;20204;-68
2023/05/22 00:31:34;;;;;;;7.70;3.30;;;;;;;17.99;52.65;96714.97;5009567;28;20188;-68
2023/05/22 00:34:01;;;;;;;5.97;2.87;;;;;;;17.98;52.84;96718.56;5008629;28;20281;-69
2023/05/22 00:36:28;;;;;;;6.20;3.43;;;;;;;17.92;52.96;96708.56;5008203;28;20763;-68
2023/05/22 00:38:55;;;;;;;4.07;3.10;;;;;;;17.94;53.01;96711.06;5008652;28;20652;-68
2023/05/22 00:41:22;;;;;;;4.20;2.77;;;;;;;17.92;52.97;96718.22;5006795;28;20193;-68
2023/05/22 00:43:50;;;;;;;3.43;2.93;;;;;;;18.03;53.08;96716.41;5009964;28;20893;-67
2023/05/22 00:46:21;;;;;;;6.60;3.00;;;;;;;17.98;53.62;96720.34;5008441;28;20283;-67
2023/05/22 00:48:48;;;;;;;7.23;3.30;;;;;;;18.01;52.83;96713.06;5009402;28;20240;-70
2023/05/22 00:51:15;;;;;;;5.30;3.30;;;;;;;17.99;53.25;96714.16;5009132;28;20193;-74
2023/05/22 00:53:43;;;;;;;6.53;3.43;;;;;;;18.01;53.41;96717.50;4990785;28;20580;-72
2023/05/22 00:56:11;;;;;;;6.90;3.33;;;;;;;17.92;54.06;96705.13;5009342;28;20220;-69
2023/05/22 00:58:39;;;;;;;5.40;3.60;;;;;;;17.85;54.65;96718.69;5007944;28;20695;-69
2023/05/22 01:01:08;;;;;;;5.70;3.30;;;;;;;17.85;55.03;96717.88;5009638;28;20781;-68
2023/05/22 01:03:41;;;;;;;4.63;3.10;;;;;;;17.82;55.12;96712.88;5006781;28;20192;-72
2023/05/22 01:06:08;;;;;;;7.17;4.07;;;;;;;17.81;55.65;96709.44;5009112;28;20192;-69
2023/05/22 01:08:35;;;;;;;5.83;3.30;;;;;;;17.85;55.81;96720.47;5007892;28;20360;-69
2023/05/22 01:11:12;;;;;;;3.57;3.07;;;;;;;17.83;55.64;96722.41;5008050;28;20191;-70
2023/05/22 01:14:16;;;;;;;7.43;3.47;;;;;;;17.89;55.68;96719.28;5009362;28;20687;-68
2023/05/22 01:16:58;;;;;;;8.00;3.63;;;;;;;17.94;56.20;96711.91;5008064;28;20200;-68
2023/05/22 01:20:00;;;;;;;6.93;3.60;;;;;;;17.40;55.54;96635.91;5007226;28;20286;-68
2023/05/22 01:22:42;;;;;;;5.37;3.40;;;;;;;17.87;56.53;96705.47;5007997;28;20293;-68
2023/05/22 01:25:41;;;;;;;8.57;3.57;;;;;;;17.79;56.35;96708.72;5006252;28;20620;-68
2023/05/22 01:28:33;;;;;;;5.83;3.40;;;;;;;17.88;56.28;96700.13;5008205;28;20221;-67
2023/05/22 01:31:16;;;;;;;5.30;3.07;;;;;;;17.93;56.14;96698.94;5007820;28;20960;-67
2023/05/22 01:34:11;;;;;;;6.30;4.67;;;;;;;17.98;55.74;96691.50;5005994;28;20204;-68
2023/05/22 01:36:40;;;;;;;6.67;3.43;;;;;;;17.97;55.81;96700.34;5006475;28;20236;-72
2023/05/22 01:39:08;;;;;;;5.50;3.63;;;;;;;17.94;56.08;96687.47;5007870;28;20198;-68
2023/05/22 01:41:35;;;;;;;7.27;3.73;;;;;;;18.14;55.77;96697.19;5007327;28;20197;-69
2023/05/22 01:44:02;;;;;;;5.40;3.63;;;;;;;18.07;55.87;96693.41;5008738;28;20220;-69
2023/05/22 01:46:30;;;;;;;5.53;3.53;;;;;;;18.04;55.45;96678.75;5007145;28;20283;-68
2023/05/22 01:48:58;;;;;;;7.77;3.27;;;;;;;18.15;55.63;96689.22;5008148;28;20638;-71
2023/05/22 01:51:59;;;;;;;5.60;3.80;;;;;;;18.06;55.95;96687.31;5022803;28;20229;-71
2023/05/22 01:54:57;;;;;;;7.47;3.23;;;;;;;18.26;54.50;96685.72;5005824;28;20207;-68
2023/05/22 01:57:31;;;;;;;6.67;3.77;;;;;;;18.12;55.33;96683.38;5007425;28;20188;-67
2023/05/22 02:00:12;;;;;;;8.43;3.83;;;;;;;18.15;55.44;96683.13;5006040;28;20619;-67
2023/05/22 02:02:48;;;;;;;6.03;3.00;;;;;;;18.24;55.18;96682.34;5007651;28;20232;-73
2023/05/22 02:05:20;;;;;;;7.07;3.53;;;;;;;18.33;55.18;96686.84;5007200;28;20258;-68
2023/05/22 02:07:47;;;;;;;6.43;3.33;;;;;;;18.26;54.57;96683.09;5005601;28;20271;-68
2023/05/22 02:10:17;;;;;;;4.07;3.27;;;;;;;18.34;55.14;96683.28;5007329;28;20230;-68
2023/05/22 02:12:46;;;;;;;6.70;3.53;;;;;;;18.37;55.49;96675.16;5005365;28;20842;-71
2023/05/22 02:15:14;;;;;;;7.93;3.70;;;;;;;18.43;55.26;96682.53;5006994;28;20211;-72
2023/05/22 02:17:41;;;;;;;3.50;3.17;;;;;;;18.45;55.32;96662.28;5006396;28;20242;-75
2023/05/22 02:20:14;;;;;;;7.07;3.80;;;;;;;18.46;55.94;96683.16;5007115;28;20196;-70
2023/05/22 02:22:46;;;;;;;5.83;3.47;;;;;;;18.30;56.10;96676.63;5008069;28;20213;-71
2023/05/22 02:25:15;;;;;;;5.57;3.40;;;;;;;18.38;55.63;96669.78;5005166;28;20703;-69
2023/05/22 02:27:46;;;;;;;5.17;3.70;;;;;;;18.26;56.04;96672.59;5008024;28;20259;-72
2023/05/22 02:30:14;;;;;;;9.70;4.07;;;;;;;18.26;56.34;96683.09;5006604;28;20193;-77
2023/05/22 02:32:43;;;;;;;9.20;4.73;;;;;;;18.18;56.87;96682.88;5006674;28;20233;-73
2023/05/22 02:35:10;;;;;;;12.17;4.83;;;;;;;18.06;56.82;96676.00;5007743;28;20212;-72
2023/05/22 02:37:37;;;;;;;6.40;4.00;;;;;;;18.15;56.39;96678.72;5005334;28;20227;-69
2023/05/22 02:40:06;;;;;;;5.83;3.13;;;;;;;18.14;56.48;96682.28;5006617;28;20261;-71
2023/05/22 02:42:33;;;;;;;5.77;3.57;;;;;;;18.14;56.24;96677.03;5006298;28;20207;-69
2023/05/22 02:45:01;;;;;;;5.33;3.43;;;;;;;18.04;56.04;96678.75;5006519;28;20234;-68
2023/05/22 02:47:34;;;;;;;4.77;3.00;;;;;;;18.14;54.30;96684.91;5005597;28;20644;-69
2023/05/22 02:50:01;;;;;;;7.07;3.27;;;;;;;18.35;53.05;96683.16;5006432;28;20590;-69
2023/05/22 02:52:31;;;;;;;9.90;3.90;;;;;;;18.30;53.26;96687.94;5006564;28;20222;-69
2023/05/22 02:54:58;;;;;;;7.87;3.60;;;;;;;18.32;53.90;96682.59;5006347;28;20247;-70
2023/05/22 02:57:25;;;;;;;4.57;2.97;;;;;;;18.31;54.17;96688.78;5006510;28;20248;-70
2023/05/22 02:59:52;;;;;;;6.90;3.60;;;;;;;18.43;54.15;96685.13;5008291;28;20192;-71
2023/05/22 03:02:20;;;;;;;5.20;3.43;;;;;;;18.32;52.57;96693.06;5010664;28;20192;-75
2023/05/22 03:04:47;;;;;;;6.80;3.33;;;;;;;18.44;52.28;96684.22;5008898;28;20231;-74
2023/05/22 03:07:15;;;;;;;7.33;3.90;;;;;;;18.29;54.68;96683.66;5013757;28;20220;-74
2023/05/22 03:09:42;;;;;;;6.27;3.20;;;;;;;18.28;55.03;96678.56;5016966;28;20663;-74
2023/05/22 03:12:10;;;;;;;6.03;3.57;;;;;;;18.36;54.27;96665.66;5011446;28;20199;-74
2023/05/22 03:14:38;;;;;;;10.23;3.80;;;;;;;18.45;53.95;96670.97;5009919;28;20279;-74
2023/05/22 03:17:05;;;;;;;7.53;3.53;;;;;;;18.50;54.26;96678.47;5006725;28;20200;-75
2023/05/22 03:19:32;;;;;;;7.70;3.87;;;;;;;18.44;54.85;96673.75;5010175;28;20215;-76
2023/05/22 03:21:59;;;;;;;7.10;3.40;;;;;;;18.48;54.16;96677.78;5008253;28;20567;-76
2023/05/22 03:24:26;;;;;;;4.83;3.53;;;;;;;18.41;54.46;96684.44;4995626;28;20233;-72
2023/05/22 03:26:53;;;;;;;5.77;3.30;;;;;;;18.42;54.16;96676.44;4989759;28;20267;-76
2023/05/22 03:29:32;;;;;;;4.97;3.83;;;;;;;18.59;53.50;96685.56;5005627;28;20227;-75
2023/05/22 03:32:02;;;;;;;6.30;3.50;;;;;;;18.56;51.88;96683.22;5001451;28;20231;-71
2023/05/22 03:34:31;;;;;;;5.80;2.87;;;;;;;18.64;52.13;96684.25;5004870;28;20687;-68
2023/05/22 03:37:00;;;;;;;6.70;3.53;;;;;;;18.59;52.27;96680.31;4990318;28;20194;-78
2023/05/22 03:39:27;;;;;;;9.20;3.90;;;;;;;18.71;51.87;96674.06;5004878;28;20260;-79
2023/05/22 03:42:00;;;;;;;8.07;3.60;;;;;;;18.89;52.77;96684.78;4989787;28;20218;-74
2023/05/22 03:44:28;;;;;;;5.77;4.07;;;;;;;18.69;53.44;96674.19;5008910;28;20221;-76
2023/05/22 03:46:55;;;;;;;5.70;3.73;;;;;;;18.61;53.93;96681.00;5008967;28;20636;-75
2023/05/22 03:49:23;;;;;;;10.53;4.37;;;;;;;18.71;55.25;96691.59;5001092;28;20201;-79
2023/05/22 03:51:51;;;;;;;11.93;5.23;;;;;;;18.52;56.39;96687.03;5009413;28;20202;-75
2023/05/22 03:54:18;;;;;;;10.50;5.23;;;;;;;18.66;56.12;96690.19;4980081;28;20585;-76
2023/05/22 03:56:46;;;;;;;14.13;5.63;;;;;;;18.74;56.34;96692.16;4993931;28;20670;-71
2023/05/22 03:59:13;;;;;;;10.93;5.43;;;;;;;18.49;56.58;96697.78;4993998;28;20203;-75
2023/05/22 04:01:40;;;;;;;16.50;5.13;;;;;;;18.40;57.89;96696.72;4989514;28;20201;-74
2023/05/22 04:04:11;;;;;;;11.00;5.63;;;;;;;18.57;57.17;96680.44;4990500;28;20193;-78
2023/05/22 04:06:41;;;;;;;10.20;5.00;;;;;;;19.02;55.92;96680.19;5011910;28;20201;-75
2023/05/22 04:09:12;;;;;;;9.07;4.47;;;;;;;19.05;55.17;96686.00;5006407;28;20289;-70
2023/05/22 04:11:41;;;;;;;17.47;7.30;;;;;;;19.47;55.47;96713.84;5007837;28;20197;-78
2023/05/22 04:14:09;;;;;;;8.87;4.90;;;;;;;19.32;55.69;96704.66;5021168;28;20201;-76
2023/05/22 04:16:36;;;;;;;9.17;5.17;;;;;;;19.24;54.94;96699.22;5009315;28;20636;-71
2023/05/22 04:19:04;;;;;;;8.73;4.57;;;;;;;19.33;55.23;96698.44;5009666;28;20206;-72
2023/05/22 04:21:33;;;;;;;12.87;4.63;;;;;;;19.47;53.96;96703.34;4982399;28;20285;-73
2023/05/22 04:24:05;;;;;;;13.40;5.63;;;;;;;19.41;55.73;96701.25;5004070;28;20214;-70
2023/05/22 04:26:33;;;;;;;10.47;5.20;;;;;;;19.69;55.97;96704.09;5006834;28;20319;-73
2023/05/22 04:29:01;;;;;;;11.10;5.53;;;;;;;20.08;53.55;96666.41;5010321;28;20284;-76
2023/05/22 04:31:28;;;;;;;13.40;5.43;;;;;;;20.56;51.82;96725.16;5008694;28;20194;-72
2023/05/22 04:33:58;;;;;;;9.93;4.60;;;;;;;20.74;51.63;96707.69;5008430;28;20207;-71
2023/05/22 04:36:26;;;;;;;12.23;5.60;;;;;;;21.05;50.80;96709.19;5008406;28;20262;-75
2023/05/22 04:38:54;;;;;;;16.20;8.97;;;;;;;21.24;50.67;96710.13;5008643;28;20261;-68
2023/05/22 04:41:25;;;;;;;16.67;4.83;;;;;;;21.62;49.11;96699.41;5010447;28;20588;-72
2023/05/22 04:43:52;;;;;;;12.23;4.60;;;;;;;22.13;47.56;96707.63;5013637;28;20192;-70
2023/05/22 04:46:20;;;;;;;17.53;5.10;;;;;;;22.55;46.55;96708.69;5028595;28;20231;-71
2023/05/22 04:48:47;;;;;;;9.07;4.60;;;;;;;22.88;45.73;96707.16;5008611;28;20256;-69
2023/05/22 04:51:15;;;;;;;14.03;4.20;;;;;;;22.86;45.08;96718.88;5007891;28;20216;-69
2023/05/22 04:53:42;;;;;;;8.70;4.67;;;;;;;22.47;46.40;96715.69;5007714;28;20291;-73
2023/05/22 04:56:09;;;;;;;4.90;3.47;;;;;;;22.28;44.58;96718.47;5006681;28;20257;-67
2023/05/22 04:58:40;;;;;;;9.53;4.53;;;;;;;21.96;46.78;96720.78;4976311;28;20205;-70
2023/05/22 05:01:08;;;;;;;11.03;5.27;;;;;;;21.83;48.09;96723.75;5007768;28;20188;-70
2023/05/22 05:03:36;;;;;;;12.00;5.00;;;;;;;22.30;46.64;96712.06;5008052;28;20259;-71
2023/05/22 05:06:03;;;;;;;9.20;3.87;;;;;;;22.48;45.36;96725.28;5007669;28;20276;-69
2023/05/22 05:08:30;;;;;;;11.43;4.47;;;;;;;22.79;45.71;96717.84;4991329;28;20675;-76
2023/05/22 05:10:57;;;;;;;12.23;5.23;;;;;;;23.19;44.46;96726.03;5007285;28;20197;-69
2023/05/22 05:13:25;;;;;;;14.53;4.80;;;;;;;23.43;44.17;96723.59;5006605;28;20683;-73
2023/05/22 05:15:53;;;;;;;13.60;5.17;;;;;;;23.66;43.73;96724.69;5007605;28;20226;-68
2023/05/22 05:18:21;;;;;;;11.97;5.53;;;;;;;23.99;42.87;96725.66;5005784;28;20518;-70
2023/05/22 05:20:48;;;;;;;6.37;3.67;;;;;;;22.43;45.93;96725.75;5009106;28;20238;-70
2023/05/22 05:23:15;;;;;;;8.07;3.70;;;;;;;22.78;45.63;96724.09;5004760;28;20233;-75
2023/05/22 05:25:42;;;;;;;7.80;3.63;;;;;;;22.50;46.02;96728.63;5007559;28;20221;-74
2023/05/22 05:28:10;;;;;;;7.50;3.67;;;;;;;22.24;46.04;96723.22;5012164;28;20221;-75
2023/05/22 05:30:40;;;;;;;5.73;3.50;;;;;;;21.91;47.17;96723.84;5014053;28;20199;-74
2023/05/22 05:33:28;;;;;;;8.00;3.63;;;;;;;21.85;47.25;96729.72;5012842;28;20201;-74
2023/05/22 05:36:05;;;;;;;7.03;3.40;;;;;;;21.94;47.08;96715.66;5022620;28;20192;-75
2023/05/22 05:38:34;;;;;;;6.03;3.70;;;;;;;22.03;47.04;96725.31;5007708;28;20195;-78
2023/05/22 05:41:01;;;;;;;8.83;4.10;;;;;;;21.83;47.34;96731.66;4990526;28;20196;-76
2023/05/22 05:43:29;;;;;;;7.23;5.40;;;;;;;22.22;48.06;96725.19;5022936;28;20199;-77
2023/05/22 05:46:02;;;;;;;10.83;4.33;;;;;;;22.61;48.46;96726.59;4991415;28;20243;-75
2023/05/22 05:48:29;;;;;;;4.60;3.13;;;;;;;22.73;46.13;96732.47;4988884;28;20610;-76
2023/05/22 05:50:58;;;;;;;4.40;3.60;;;;;;;23.26;45.57;96727.94;4990186;28;20198;-69
2023/05/22 05:53:27;;;;;;;7.93;4.40;;;;;;;23.72;45.18;96732.00;4988706;28;20297;-70
2023/05/22 05:55:57;;;;;;;8.57;4.47;;;;;;;24.10;44.64;96736.81;5006596;28;20232;-69
2023/05/22 05:58:26;;;;;;;9.87;5.30;;;;;;;24.15;45.40;96734.50;5005448;28;20201;-74
2023/05/22 06:01:06;;;;;;;10.27;4.40;;;;;;;24.09;44.07;96727.19;4988716;28;20201;-75
2023/05/22 06:03:35;;;;;;;9.83;4.60;;;;;;;23.74;45.57;96734.50;4990998;28;20212;-73
2023/05/22 06:06:12;;;;;;;10.00;4.80;;;;;;;23.75;45.18;96736.13;5004793;28;20713;-71
2023/05/22 06:09:05;;;;;;;10.60;5.07;;;;;;;23.90;45.95;96732.75;4988722;28;20249;-78
2023/05/22 06:11:36;;;;;;;10.57;6.20;;;;;;;24.25;44.76;96734.38;4989676;28;20253;-76
2023/05/22 06:14:09;;;;;;;7.30;4.80;;;;;;;24.43;44.13;96742.19;5006387;28;20619;-73
2023/05/22 06:16:36;;;;;;;10.37;3.87;;;;;;;24.31;43.85;96741.66;4998697;28;20200;-75
2023/05/22 06:19:03;;;;;;;7.20;3.63;;;;;;;22.92;45.94;96739.38;5017855;28;20230;-78
2023/05/22 06:21:31;;;;;;;10.10;4.60;;;;;;;22.83;46.62;96729.75;5006654;28;20204;-71
2023/05/22 06:23:59;;;;;;;7.53;4.27;;;;;;;22.35;47.73;96740.66;5005139;28;20197;-77
2023/05/22 06:26:27;;;;;;;7.60;2.90;;;;;;;22.52;46.80;96735.38;5006319;28;20279;-71
2023/05/22 06:28:55;;;;;;;6.27;3.53;;;;;;;23.11;46.36;96740.03;5005278;28;20242;-77
2023/05/22 06:31:23;;;;;;;3.53;2.97;;;;;;;23.47;45.72;96724.09;5005616;28;20200;-73
2023/05/22 06:33:56;;;;;;;5.33;3.67;;;;;;;23.32;46.29;96732.63;4990326;28;20233;-74
2023/05/22 06:36:24;;;;;;;6.57;2.80;;;;;;;23.00;46.26;96727.06;5004347;28;20256;-75
2023/05/22 06:38:53;;;;;;;9.30;3.50;;;;;;;23.10;45.35;96732.28;5005940;28;20513;-70
2023/05/22 06:41:58;;;;;;;9.13;4.50;;;;;;;23.02;45.88;96725.09;4964839;28;20718;-73
2023/05/22 06:44:43;;;;;;;5.97;4.13;;;;;;;22.91;46.45;96737.75;4964189;28;20282;-71
2023/05/22 06:47:10;;;;;;;5.70;3.23;;;;;;;22.47;45.91;96736.81;4965765;28;20232;-72
2023/05/22 06:49:38;;;;;;;5.83;3.20;;;;;;;22.97;45.22;96751.16;5004135;28;20224;-71
2023/05/22 06:52:05;;;;;;;7.40;4.30;;;;;;;22.85;44.50;96739.19;5006162;28;20194;-72
2023/05/22 06:54:33;;;;;;;5.93;3.80;;;;;;;23.08;45.41;96739.53;5004480;28;20213;-72
2023/05/22 06:57:02;;;;;;;5.10;3.33;;;;;;;23.13;45.37;96742.50;5004739;28;20230;-72
2023/05/22 06:59:31;;;;;;;6.10;3.20;;;;;;;22.77;44.49;96738.28;4989307;28;20275;-73
2023/05/22 07:02:05;;;;;;;7.23;4.40;;;;;;;22.79;45.42;96741.59;5005960;28;20230;-70
2023/05/22 07:04:52;;;;;;;10.63;3.97;;;;;;;22.64;45.16;96725.47;5010183;28;20209;-70
2023/05/22 07:07:30;;;;;;;9.07;3.60;;;;;;;22.36;45.31;96750.25;5005702;28;20708;-74
2023/05/22 07:09:57;;;;;;;7.97;4.03;;;;;;;22.47;45.33;96750.84;5006558;28;20203;-73
2023/05/22 07:12:26;;;;;;;4.77;2.90;;;;;;;22.45;44.97;96744.91;5005284;28;20299;-70
2023/05/22 07:14:55;;;;;;;6.00;3.20;;;;;;;22.86;44.05;96727.63;5004336;28;20201;-70
2023/05/22 07:17:25;;;;;;;5.17;3.20;;;;;;;23.10;44.45;96741.00;5022056;28;20236;-72
2023/05/22 07:19:53;;;;;;;5.47;2.97;;;;;;;22.71;44.57;96754.75;5003870;28;20283;-71
2023/05/22 07:22:20;;;;;;;9.67;4.70;;;;;;;22.67;45.34;96758.66;5005579;28;20201;-68
2023/05/22 07:24:48;;;;;;;5.90;4.30;;;;;;;22.65;46.21;96751.72;5003685;28;20209;-72
2023/05/22 07:27:17;;;;;;;9.17;3.73;;;;;;;22.33;46.52;96769.84;5005386;28;20696;-73
2023/05/22 07:29:47;;;;;;;6.27;3.83;;;;;;;22.34;50.35;96762.75;5004374;28;20200;-78
2023/05/22 07:32:15;;;;;;;8.37;4.17;;;;;;;22.59;49.50;96740.91;5003921;28;20212;-72
2023/05/22 07:34:43;;;;;;;4.70;4.10;;;;;;;22.59;51.38;96760.22;5005313;28;20653;-75
2023/05/22 07:37:12;;;;;;;7.77;4.43;;;;;;;22.91;51.75;96758.88;5003728;28;20207;-78
2023/05/22 07:39:41;;;;;;;11.23;4.67;;;;;;;23.01;51.51;96749.03;5005439;28;20289;-75
2023/05/22 07:42:08;;;;;;;5.57;3.83;;;;;;;23.05;50.84;96755.66;5003632;28;20256;-77
2023/05/22 07:44:43;;;;;;;7.83;4.20;;;;;;;23.02;51.10;96751.53;5006866;28;20275;-77
2023/05/22 07:47:10;;;;;;;8.30;3.97;;;;;;;23.16;51.24;96750.94;5009457;28;20248;-74
2023/05/22 07:49:38;;;;;;;11.07;5.50;;;;;;;23.59;51.11;96750.13;5008087;28;20197;-73
2023/05/22 07:52:05;;;;;;;8.20;4.07;;;;;;;23.81;49.70;96756.66;5010487;28;20211;-73
2023/05/22 07:54:33;;;;;;;7.20;3.40;;;;;;;23.59;49.15;96749.28;5008886;28;20278;-71
2023/05/22 07:57:03;;;;;;;5.67;3.80;;;;;;;23.96;48.31;96744.50;5010061;28;20328;-70
2023/05/22 07:59:36;;;;;;;7.47;5.73;;;;;;;24.42;47.54;96759.88;5007132;28;20696;-69
2023/05/22 08:02:03;;;;;;;6.87;3.70;;;;;;;24.86;46.18;96755.16;5008229;28;20194;-69
2023/05/22 08:04:30;;;;;;;5.80;3.93;;;;;;;24.81;46.27;96746.91;5009567;28;20208;-72
2023/05/22 08:06:58;;;;;;;7.93;3.77;;;;;;;24.81;46.23;96745.06;5006912;28;20227;-70
2023/05/22 08:09:25;;;;;;;8.97;4.50;;;;;;;24.77;46.73;96746.38;5009793;28;20801;-77
2023/05/22 08:11:53;;;;;;;7.77;3.83;;;;;;;24.90;45.12;96737.94;5006615;28;20219;-73
2023/05/22 08:14:21;;;;;;;9.47;4.50;;;;;;;24.97;45.02;96752.22;5009529;28;20241;-72
2023/05/22 08:16:48;;;;;;;6.03;3.80;;;;;;;24.62;46.99;96747.19;5007186;28;20200;-77
2023/05/22 08:19:15;;;;;;;9.20;4.60;;;;;;;24.31;46.68;96730.25;5009077;28;20289;-74
2023/05/22 08:21:44;;;;;;;6.67;4.33;;;;;;;24.39;46.67;96740.84;5007155;28;20199;-71
2023/05/22 08:24:11;;;;;;;9.90;4.97;;;;;;;24.61;46.08;96742.88;5007956;28;20290;-73
2023/05/22 08:26:39;;;;;;;9.10;5.17;;;;;;;24.76;45.50;96743.91;5009550;28;20281;-69
2023/05/22 08:29:06;;;;;;;7.03;3.60;;;;;;;24.47;46.50;96756.75;5006066;28;20207;-74
2023/05/22 08:31:34;;;;;;;5.47;3.40;;;;;;;24.39;46.26;96751.44;5009008;28;20195;-78
2023/05/22 08:34:03;;;;;;;5.30;3.83;;;;;;;24.25;46.32;96743.13;4990084;28;20302;-72
2023/05/22 08:36:32;;;;;;;6.83;4.13;;;;;;;24.04;47.04;96742.75;5010587;28;20212;-72
2023/05/22 08:39:00;;;;;;;6.13;3.40;;;;;;;23.82;47.48;96753.84;5010558;28;20638;-78
2023/05/22 08:41:28;;;;;;;5.60;3.50;;;;;;;23.96;48.15;96747.97;5024968;28;20207;-71
2023/05/22 08:43:56;;;;;;;8.57;3.83;;;;;;;23.97;48.02;96740.84;5010266;28;20194;-77
2023/05/22 08:46:27;;;;;;;9.57;3.93;;;;;;;24.04;46.88;96740.09;5007799;28;20221;-78
2023/05/22 08:48:58;;;;;;;10.83;5.07;;;;;;;24.23;46.69;96749.59;5007669;28;20226;-77
2023/05/22 08:51:30;;;;;;;8.37;4.70;;;;;;;24.27;47.30;96729.75;5006461;28;20190;-74
2023/05/22 08:53:58;;;;;;;5.03;3.93;;;;;;;24.52;46.00;96738.56;5009026;28;20282;-77
2023/05/22 08:56:26;;;;;;;10.47;5.13;;;;;;;24.74;46.16;96740.59;5006781;28;20254;-77
2023/05/22 08:58:57;;;;;;;9.47;4.00;;;;;;;24.92;45.50;96746.56;5022528;28;20210;-75
2023/05/22 09:01:25;;;;;;;8.10;3.77;;;;;;;24.87;45.40;96740.94;5009046;28;20201;-72
2023/05/22 09:03:52;;;;;;;8.93;4.40;;;;;;;24.66;45.09;96729.97;5006905;28;20601;-74
2023/05/22 09:06:20;;;;;;;6.83;3.87;;;;;;;24.94;44.44;96734.81;5024035;28;20289;-70
2023/05/22 09:08:47;;;;;;;6.77;4.50;;;;;;;25.16;44.74;96728.00;5005582;28;20687;-73
2023/05/22 09:11:17;;;;;;;5.10;3.70;;;;;;;25.31;43.83;96726.31;5008180;28;20194;-70
2023/05/22 09:13:45;;;;;;;5.97;3.23;;;;;;;25.11;44.27;96714.44;5007878;28;20219;-70
2023/05/22 09:16:13;;;;;;;5.80;4.07;;;;;;;24.99;43.97;96731.66;5007471;28;20227;-72
2023/05/22 09:18:44;;;;;;;6.70;3.47;;;;;;;24.67;45.68;96728.97;5008325;28;20250;-73
2023/05/22 09:21:13;;;;;;;9.37;4.37;;;;;;;24.48;46.61;96721.34;5005445;28;20215;-73
2023/05/22 09:24:00;;;;;;;6.60;3.87;;;;;;;24.85;45.06;96729.69;5008195;28;20199;-72
2023/05/22 09:26:28;;;;;;;6.57;3.70;;;;;;;24.92;45.33;96717.41;5007927;28;20238;-78
2023/05/22 09:28:58;;;;;;;6.63;3.90;;;;;;;25.13;46.16;96727.50;5008591;28;20207;-70
2023/05/22 09:31:27;;;;;;;8.10;5.53;;;;;;;24.89;45.40;96718.56;5008670;28;20201;-70
2023/05/22 09:33:55;;;;;;;9.77;5.43;;;;;;;24.66;46.20;96724.66;5005496;28;20217;-70
2023/05/22 09:36:32;;;;;;;8.83;4.20;;;;;;;24.53;45.80;96714.56;5023455;28;20719;-71
2023/05/22 09:39:01;;;;;;;5.20;4.00;;;;;;;24.48;44.85;96710.75;5005314;28;20192;-75
2023/05/22 09:41:30;;;;;;;8.10;4.87;;;;;;;24.79;44.01;96717.09;5023125;28;20683;-72
2023/05/22 09:43:58;;;;;;;5.37;4.13;;;;;;;24.64;44.89;96726.66;5005940;28;20298;-76
2023/05/22 09:46:28;;;;;;;6.17;3.20;;;;;;;23.64;40.74;96710.78;5006741;28;20245;-72
2023/05/22 09:48:55;;;;;;;8.53;4.20;;;;;;;23.70;40.12;96704.06;4974073;28;20210;-72
2023/05/22 09:51:25;;;;;;;7.53;3.63;;;;;;;23.67;39.83;96712.31;5006254;28;20199;-73
2023/05/22 09:54:02;;;;;;;4.53;3.27;;;;;;;23.30;40.96;96689.63;5007861;28;20278;-72
2023/05/22 09:56:31;;;;;;;6.97;4.07;;;;;;;23.61;41.57;96705.00;5006146;28;20214;-78
2023/05/22 09:59:08;;;;;;;5.67;3.30;;;;;;;23.63;40.69;96701.22;5006175;28;20281;-69
2023/05/22 10:01:37;;;;;;;7.07;3.27;;;;;;;23.84;42.12;96714.88;5007623;28;20199;-74
2023/05/22 10:04:11;;;;;;;7.53;3.30;;;;;;;23.79;40.84;96706.56;5006660;28;20261;-74
2023/05/22 10:06:40;;;;;;;15.93;3.90;;;;;;;23.68;39.82;96711.34;5007719;28;20242;-72
2023/05/22 10:09:14;;;;;;;6.63;3.50;;;;;;;23.39;39.64;96704.56;5005577;28;20244;-74
2023/05/22 10:11:46;;;;;;;6.27;3.87;;;;;;;23.41;39.60;96705.22;5006456;28;20202;-73
2023/05/22 10:14:13;;;;;;;5.33;3.43;;;;;;;23.85;40.54;96720.97;5006906;28;20245;-76
2023/05/22 10:16:44;;;;;;;6.33;3.60;;;;;;;23.86;38.99;96709.41;5007559;28;20202;-75
2023/05/22 10:19:11;;;;;;;4.30;3.20;;;;;;;23.53;40.24;96715.53;5024152;28;20293;-72
2023/05/22 10:21:40;;;;;;;9.17;3.73;;;;;;;23.71;38.78;96711.84;5006108;28;20189;-76
2023/05/22 10:24:09;;;;;;;6.33;3.40;;;;;;;23.68;38.92;96725.34;5022774;28;20216;-70
2023/05/22 10:26:37;;;;;;;5.37;3.93;;;;;;;23.99;38.65;96707.97;5004287;28;20245;-72
2023/05/22 10:29:17;;;;;;;6.40;3.80;;;;;;;23.78;39.04;96704.09;5007428;28;20202;-78
2023/05/22 10:31:56;;;;;;;4.47;2.70;;;;;;;24.11;39.81;96695.31;5005810;28;20289;-78
2023/05/22 10:34:50;;;;;;;5.83;3.27;;;;;;;23.95;39.31;96698.69;5004699;28;20788;-75
2023/05/22 10:37:42;;;;;;;5.53;3.37;;;;;;;24.38;38.74;96712.72;5007593;28;20621;-78
2023/05/22 10:40:17;;;;;;;7.27;3.60;;;;;;;24.17;38.13;96692.81;5006522;28;20206;-75
2023/05/22 10:42:45;;;;;;;5.93;3.10;;;;;;;24.37;38.03;96692.53;5006611;28;20648;-72
2023/05/22 10:45:13;;;;;;;7.93;3.53;;;;;;;24.54;43.08;96695.06;5006034;28;20210;-75
2023/05/22 10:47:41;;;;;;;5.73;4.23;;;;;;;25.00;42.58;96678.50;5003962;28;20282;-74
2023/05/22 10:50:09;;;;;;;7.00;4.70;;;;;;;25.60;41.07;96678.88;5022046;28;20566;-74
2023/05/22 10:52:38;;;;;;;7.50;3.43;;;;;;;24.60;37.44;96682.97;5005742;28;20286;-73
2023/05/22 10:55:10;;;;;;;7.67;3.77;;;;;;;24.78;39.43;96668.59;5007160;28;20220;-69
2023/05/22 10:57:38;;;;;;;5.07;4.00;;;;;;;24.19;40.38;96677.59;5005130;28;20246;-75
2023/05/22 11:00:14;;;;;;;6.40;3.53;;;;;;;23.54;41.62;96683.66;5021284;28;20227;-71
2023/05/22 11:02:45;;;;;;;8.93;3.57;;;;;;;23.61;41.62;96670.63;4989907;28;20281;-69
2023/05/22 11:05:18;;;;;;;6.17;3.77;;;;;;;23.69;40.50;96671.50;5006525;28;20209;-72
2023/05/22 11:07:45;;;;;;;7.53;4.13;;;;;;;23.69;41.03;96668.84;5009931;28;20240;-71
2023/05/22 11:10:12;;;;;;;7.13;3.80;;;;;;;23.85;41.24;96660.13;5005988;28;20205;-75
2023/05/22 11:12:40;;;;;;;5.37;3.73;;;;;;;23.97;41.18;96654.38;5006016;28;20689;-78
2023/05/22 11:15:09;;;;;;;4.17;3.73;;;;;;;23.57;41.52;96672.78;4989249;28;20210;-75
2023/05/22 11:17:38;;;;;;;7.97;3.83;;;;;;;23.62;41.38;96657.25;5004278;28;20245;-69
2023/05/22 11:20:17;;;;;;;4.47;3.40;;;;;;;23.39;41.50;96667.56;5007685;28;20200;-69
2023/05/22 11:23:04;;;;;;;7.03;3.80;;;;;;;23.91;41.07;96664.78;4991417;28;20201;-68
2023/05/22 11:25:36;;;;;;;5.93;3.57;;;;;;;24.04;42.65;96665.19;5010758;28;20195;-70
2023/05/22 11:28:04;;;;;;;4.67;3.63;;;;;;;24.11;42.76;96645.03;5024851;28;20239;-69
2023/05/22 11:30:33;;;;;;;6.83;3.57;;;;;;;24.23;43.66;96656.97;5009392;28;20280;-73
2023/05/22 11:33:01;;;;;;;6.27;3.57;;;;;;;23.64;44.35;96662.41;5010451;28;20570;-69
2023/05/22 11:35:30;;;;;;;3.93;3.53;;;;;;;23.91;45.06;96656.84;4991291;28;20273;-71
2023/05/22 11:37:57;;;;;;;6.63;3.40;;;;;;;24.15;43.78;96652.47;4992971;28;20618;-70
2023/05/22 11:40:28;;;;;;;5.37;4.03;;;;;;;23.48;41.31;96660.50;5023697;28;20197;-70
2023/05/22 11:42:55;;;;;;;6.93;4.30;;;;;;;23.46;40.19;96670.41;5008991;28;20198;-70
2023/05/22 11:45:23;;;;;;;10.83;5.17;;;;;;;23.65;39.98;96664.03;5008534;28;20613;-71
2023/05/22 11:47:50;;;;;;;7.57;4.10;;;;;;;23.71;40.29;96671.31;5009140;28;20228;-75